»·PEaware :: BAW8 EGKK-KLAS

BAW8 :: EGKK-KLAS

FLIGHT INFORMATION

Flight Status: Arrived
Operator:
British Airways
More flights by this operator :: More flights under this callsign
Pilot: Scott L. (17677)
Aircraft: Unknown
(A359)
More flights by this aircraft type
Origin: EGKK Gatwick
United Kingdom
Destination: KLAS McCarran Intl
United States
More flights between these airports :: More routes between these airports
Route: +LAM L10 BPK UN601 LESTA UP6 RODOL UM65 TENSO L603 REMSI MASOP GOMUP/ ABR J158 DDY J107 MLF LUXOR2
File this flight plan on PilotEdge
Remarks: RMK / SIMBRIEF
Altitude:
(Current/Filed)
34,000ft
Speed:
(Current/Filed)
493kts
Departed: 14-Sep-20 08:21 AM
Arrived: 14-Sep-20 05:26 PM
Distance/Time
Traveled:
4550nm/9:05
Distance/Time
To Go:
Arrived

Flight Plot

Page will automatically refresh every two minutes.

Flight plan parsing failed; only flown route is shown


Map Options




Map Legend


Flown Route
Filed Route
Departure Airport
Arrival Airport
Navaid (VOR, NDB)
Fix

Horizontal Profiles

Position Reports

Time Latitude Longitude Heading Altitude Ground
Speed
14-Sep-20 08:19 51.722861 -0.039119 299 16779ft 427kts
14-Sep-20 08:20 51.812372 -0.167926 327 18445ft 446kts
14-Sep-20 08:21 51.921495 -0.270368 327 20025ft 457kts
14-Sep-20 08:22 52.032267 -0.376444 327 21543ft 468kts
14-Sep-20 08:23 52.146132 -0.486190 327 23013ft 479kts
14-Sep-20 08:24 52.261881 -0.598295 327 24413ft 488kts
14-Sep-20 08:25 52.379656 -0.713707 326 25721ft 498kts
14-Sep-20 08:26 52.499462 -0.831833 326 26931ft 507kts
14-Sep-20 08:27 52.621007 -0.952250 326 28053ft 515kts
14-Sep-20 08:28 52.742986 -1.076517 323 29668ft 509kts
14-Sep-20 08:29 52.853574 -1.216846 321 31444ft 496kts
14-Sep-20 08:30 52.961588 -1.357507 321 32779ft 491kts
14-Sep-20 08:31 53.068017 -1.496557 320 33896ft 487kts
14-Sep-20 08:32 53.174237 -1.635893 320 34156ft 479kts
14-Sep-20 08:33 53.278568 -1.774430 319 34157ft 479kts
14-Sep-20 08:34 53.382282 -1.912881 319 34158ft 479kts
14-Sep-20 08:35 53.486615 -2.053118 319 34157ft 479kts
14-Sep-20 08:36 53.581658 -2.207842 305 34158ft 475kts
14-Sep-20 08:37 53.643368 -2.401842 289 34158ft 470kts
14-Sep-20 08:38 53.687834 -2.608212 288 34157ft 470kts
14-Sep-20 08:39 53.732584 -2.817724 288 34155ft 470kts
14-Sep-20 08:40 53.776316 -3.023548 287 34154ft 470kts
14-Sep-20 08:41 53.820269 -3.232810 286 34155ft 472kts
14-Sep-20 08:43 53.863756 -3.442205 286 34155ft 473kts
14-Sep-20 08:44 53.907099 -3.652918 285 34155ft 472kts
14-Sep-20 08:45 53.949859 -3.863269 286 34138ft 472kts
14-Sep-20 08:46 54.009445 -4.064056 301 34133ft 479kts
14-Sep-20 08:47 54.096618 -4.236751 311 34131ft 484kts
14-Sep-20 08:48 54.190588 -4.401321 311 34130ft 484kts
14-Sep-20 08:49 54.283618 -4.566726 310 34131ft 484kts
14-Sep-20 08:50 54.376918 -4.734405 310 34131ft 484kts
14-Sep-20 08:51 54.469580 -4.902052 309 34129ft 486kts
14-Sep-20 08:52 54.563182 -5.072421 308 34129ft 493kts
14-Sep-20 08:53 54.657045 -5.244688 308 34118ft 493kts
14-Sep-20 08:54 54.750904 -5.418077 308 34104ft 493kts
14-Sep-20 08:55 54.844243 -5.591729 308 34102ft 493kts
14-Sep-20 08:56 54.937537 -5.766704 306 34104ft 489kts
14-Sep-20 08:57 55.028575 -5.938609 305 34111ft 477kts
14-Sep-20 08:58 55.117959 -6.108660 305 34119ft 474kts
14-Sep-20 08:59 55.206987 -6.278239 305 34110ft 474kts
14-Sep-20 09:00 55.295972 -6.449701 305 34103ft 474kts
14-Sep-20 09:00 55.369548 -6.592523 305 34102ft 474kts
14-Sep-20 09:02 55.472228 -6.793660 304 34102ft 473kts
14-Sep-20 09:02 55.545423 -6.937970 304 34102ft 473kts
14-Sep-20 09:03 55.632792 -7.111071 303 34101ft 476kts
14-Sep-20 09:04 55.721562 -7.288404 302 34102ft 477kts
14-Sep-20 09:05 55.809305 -7.465064 302 34101ft 478kts
14-Sep-20 09:06 55.897028 -7.642906 302 34102ft 478kts
14-Sep-20 09:07 55.984377 -7.821667 301 34097ft 477kts
14-Sep-20 09:08 56.071304 -8.000655 301 34085ft 478kts
14-Sep-20 09:09 56.158663 -8.180908 302 34081ft 477kts
14-Sep-20 09:10 56.245557 -8.361920 301 34077ft 478kts
14-Sep-20 09:11 56.332036 -8.543912 301 34076ft 478kts
14-Sep-20 09:12 56.418115 -8.726638 301 34077ft 476kts
14-Sep-20 09:13 56.503723 -8.909889 300 34075ft 477kts
14-Sep-20 09:14 56.589765 -9.095143 299 34075ft 484kts
14-Sep-20 09:15 56.676228 -9.282934 299 34075ft 485kts
14-Sep-20 09:16 56.762962 -9.472794 299 34076ft 486kts
14-Sep-20 09:17 56.849121 -9.662911 298 34078ft 487kts
14-Sep-20 09:18 56.934930 -9.854114 298 34076ft 485kts
14-Sep-20 09:19 57.011274 -10.052645 288 34076ft 466kts
14-Sep-20 09:20 57.066298 -10.263453 283 34078ft 452kts
14-Sep-20 09:21 57.118276 -10.472906 283 34073ft 447kts
14-Sep-20 09:22 57.169655 -10.680526 282 34076ft 444kts
14-Sep-20 09:23 57.219902 -10.887022 282 34072ft 446kts
14-Sep-20 09:24 57.271304 -11.100751 284 34072ft 459kts
14-Sep-20 09:25 57.322944 -11.316255 284 34074ft 458kts
14-Sep-20 09:26 57.373911 -11.531583 284 34075ft 459kts
14-Sep-20 09:27 57.424969 -11.749753 283 34076ft 457kts
14-Sep-20 09:28 57.475296 -11.967081 283 34077ft 458kts
14-Sep-20 09:29 57.525166 -12.184492 283 34077ft 458kts
14-Sep-20 09:30 57.574790 -12.402970 283 34075ft 459kts
14-Sep-20 09:31 57.624131 -12.622566 283 34073ft 460kts
14-Sep-20 09:32 57.672665 -12.840962 282 34076ft 457kts
14-Sep-20 09:33 57.721261 -13.062149 282 34074ft 460kts
14-Sep-20 09:34 57.769755 -13.285153 283 34077ft 465kts
14-Sep-20 09:35 57.818417 -13.510580 283 34075ft 465kts
14-Sep-20 09:36 57.866363 -13.735675 283 34076ft 464kts
14-Sep-20 09:37 57.913914 -13.961534 283 34076ft 464kts
14-Sep-20 09:38 57.960860 -14.186806 282 34063ft 462kts
14-Sep-20 09:39 58.007299 -14.412169 282 34046ft 461kts
14-Sep-20 09:40 58.053434 -14.638610 282 34046ft 461kts
14-Sep-20 09:41 58.099086 -14.865363 282 34044ft 461kts
14-Sep-20 09:42 58.144831 -15.092115 281 34049ft 457kts
14-Sep-20 09:43 58.189112 -15.316604 280 34048ft 456kts
14-Sep-20 09:44 58.233252 -15.543434 280 34049ft 458kts
14-Sep-20 09:45 58.277034 -15.771077 280 34047ft 457kts
14-Sep-20 09:46 58.320210 -15.998259 280 34048ft 456kts
14-Sep-20 09:47 58.362883 -16.225325 280 34049ft 456kts
14-Sep-20 09:48 58.405266 -16.453544 280 34048ft 457kts
14-Sep-20 09:49 58.447215 -16.682086 279 34048ft 455kts
14-Sep-20 09:50 58.488630 -16.910387 278 34040ft 455kts
14-Sep-20 09:51 58.529516 -17.138467 277 33995ft 453kts
14-Sep-20 09:52 58.569925 -17.367528 277 33973ft 455kts
14-Sep-20 09:53 58.609908 -17.596312 277 33967ft 452kts
14-Sep-20 09:54 58.649173 -17.823979 276 33964ft 449kts
14-Sep-20 09:55 58.688020 -18.052049 276 33966ft 449kts
14-Sep-20 09:56 58.726554 -18.281219 276 33968ft 450kts
14-Sep-20 09:57 58.764640 -18.510457 276 33963ft 451kts
14-Sep-20 09:58 58.802467 -18.741193 275 33969ft 449kts
14-Sep-20 09:59 58.839614 -18.970894 275 33966ft 449kts
14-Sep-20 10:00 58.876376 -19.200614 274 33967ft 447kts
14-Sep-20 10:01 58.912395 -19.429206 274 33964ft 441kts
14-Sep-20 10:02 58.947455 -19.654862 273 33969ft 435kts
14-Sep-20 10:03 58.981385 -19.876268 272 33969ft 427kts
14-Sep-20 10:04 59.013772 -20.094256 271 33965ft 420kts
14-Sep-20 10:05 59.044446 -20.313456 271 33964ft 414kts
14-Sep-20 10:06 59.074109 -20.528459 271 33961ft 414kts
14-Sep-20 10:07 59.103549 -20.744054 270 33954ft 413kts
14-Sep-20 10:08 59.132892 -20.959186 271 33961ft 412kts
14-Sep-20 10:09 59.162130 -21.180714 275 33984ft 433kts
14-Sep-20 10:10 59.192470 -21.410654 275 33987ft 437kts
14-Sep-20 10:11 59.222344 -21.642082 274 33986ft 439kts
14-Sep-20 10:12 59.251711 -21.873840 274 33990ft 440kts
14-Sep-20 10:13 59.280590 -22.105345 274 33986ft 439kts
14-Sep-20 10:14 59.308970 -22.336562 274 33992ft 440kts
14-Sep-20 10:15 59.337297 -22.571155 274 33985ft 440kts
14-Sep-20 10:16 59.364842 -22.803216 273 33992ft 438kts
14-Sep-20 10:17 59.392086 -23.038462 276 33985ft 450kts
14-Sep-20 10:18 59.419921 -23.279452 276 33991ft 452kts
14-Sep-20 10:19 59.447201 -23.520651 276 33992ft 452kts
14-Sep-20 10:20 59.473878 -23.761561 276 33992ft 451kts
14-Sep-20 10:21 59.499999 -24.001847 276 33992ft 451kts
14-Sep-20 10:22 59.525924 -24.244774 276 33991ft 452kts
14-Sep-20 10:23 59.551327 -24.487382 276 33990ft 451kts
14-Sep-20 10:24 59.576138 -24.728909 275 33993ft 449kts
14-Sep-20 10:25 59.600465 -24.970574 275 33990ft 450kts
14-Sep-20 10:26 59.624317 -25.213858 277 33990ft 454kts
14-Sep-20 10:27 59.648137 -25.458685 277 33991ft 454kts
14-Sep-20 10:28 59.671443 -25.704352 276 33992ft 454kts
14-Sep-20 10:29 59.694124 -25.949056 276 33991ft 454kts
14-Sep-20 10:30 59.716462 -26.195147 276 33991ft 454kts
14-Sep-20 10:31 59.738307 -26.441214 276 33991ft 453kts
14-Sep-20 10:32 59.759677 -26.687467 276 33992ft 454kts
14-Sep-20 10:33 59.780539 -26.933828 276 33993ft 453kts
14-Sep-20 10:34 59.800759 -27.179446 278 33992ft 449kts
14-Sep-20 10:35 59.820670 -27.424081 278 33992ft 449kts
14-Sep-20 10:36 59.840032 -27.669076 277 33991ft 449kts
14-Sep-20 10:37 59.858858 -27.913886 277 33989ft 449kts
14-Sep-20 10:38 59.877248 -28.159085 277 33991ft 448kts
14-Sep-20 10:40 59.895244 -28.405040 277 33991ft 449kts
14-Sep-20 10:41 59.912727 -28.650713 276 33990ft 448kts
14-Sep-20 10:42 59.929737 -28.897258 277 33992ft 447kts
14-Sep-20 10:43 59.946058 -29.140636 278 33993ft 440kts
14-Sep-20 10:44 59.961969 -29.383050 278 33989ft 441kts
14-Sep-20 10:45 59.977368 -29.625572 278 33991ft 440kts
14-Sep-20 10:46 59.992286 -29.869228 277 33989ft 441kts
14-Sep-20 10:47 60.015308 -30.107181 286 33991ft 440kts
14-Sep-20 10:48 60.048268 -30.343457 286 33992ft 440kts
14-Sep-20 10:49 60.080780 -30.579699 286 33989ft 440kts
14-Sep-20 10:50 60.112925 -30.815972 285 33993ft 439kts
14-Sep-20 10:51 60.144779 -31.052291 286 33993ft 436kts
14-Sep-20 10:52 60.175196 -31.283931 287 33992ft 423kts
14-Sep-20 10:53 60.204921 -31.512739 286 33992ft 423kts
14-Sep-20 10:54 60.234170 -31.742287 286 33991ft 424kts
14-Sep-20 10:55 60.263147 -31.973506 286 33990ft 424kts
14-Sep-20 10:56 60.291627 -32.203863 286 33989ft 424kts
14-Sep-20 10:56 60.315013 -32.396021 286 33989ft 424kts
14-Sep-20 10:58 60.347487 -32.666744 285 33994ft 424kts
14-Sep-20 10:59 60.374604 -32.897698 285 33993ft 424kts
14-Sep-20 10:59 60.396560 -33.087952 286 33994ft 407kts
14-Sep-20 11:00 60.421814 -33.308406 287 33991ft 400kts
14-Sep-20 11:02 60.450701 -33.565290 286 33991ft 401kts
14-Sep-20 11:02 60.470832 -33.747789 286 33992ft 401kts
14-Sep-20 11:03 60.494925 -33.969311 286 33981ft 401kts
14-Sep-20 11:04 60.518618 -34.190768 286 33929ft 401kts
14-Sep-20 11:05 60.542002 -34.413016 286 33912ft 402kts
14-Sep-20 11:06 60.565029 -34.635664 286 33911ft 402kts
14-Sep-20 11:07 60.587624 -34.858757 285 33912ft 400kts
14-Sep-20 11:08 60.609419 -35.077500 285 33913ft 386kts
14-Sep-20 11:09 60.630590 -35.291939 283 33905ft 389kts
14-Sep-20 11:10 60.651714 -35.511693 283 33887ft 395kts
14-Sep-20 11:11 60.672556 -35.733084 282 33884ft 395kts
14-Sep-20 11:12 60.693078 -35.954727 282 33883ft 395kts
14-Sep-20 11:13 60.713256 -36.176576 282 33883ft 395kts
14-Sep-20 11:14 60.732975 -36.397515 282 33883ft 395kts
14-Sep-20 11:15 60.752411 -36.619724 282 33884ft 395kts
14-Sep-20 11:16 60.771144 -36.838710 282 33883ft 395kts
14-Sep-20 11:17 60.789880 -37.061304 281 33882ft 397kts
14-Sep-20 11:18 60.808435 -37.286422 279 33883ft 403kts
14-Sep-20 11:19 60.826637 -37.513615 279 33883ft 403kts
14-Sep-20 11:20 60.844563 -37.742081 278 33884ft 403kts
14-Sep-20 11:21 60.862108 -37.970445 278 33883ft 403kts
14-Sep-20 11:22 60.879295 -38.199468 279 33883ft 403kts
14-Sep-20 11:23 60.895936 -38.426385 279 33883ft 403kts
14-Sep-20 11:24 60.912284 -38.654822 278 33884ft 403kts
14-Sep-20 11:25 60.928165 -38.883199 278 33883ft 403kts
14-Sep-20 11:26 60.943900 -39.113316 277 33882ft 409kts
14-Sep-20 11:27 60.959210 -39.345615 277 33883ft 410kts
14-Sep-20 11:28 60.974166 -39.578450 277 33883ft 410kts
14-Sep-20 11:29 60.988674 -39.811510 276 33884ft 410kts
14-Sep-20 11:30 60.994483 -40.046689 268 33883ft 410kts
14-Sep-20 11:31 60.982654 -40.280240 264 33883ft 410kts
14-Sep-20 11:32 60.967958 -40.514158 264 33883ft 410kts
14-Sep-20 11:33 60.952801 -40.747159 263 33884ft 410kts
14-Sep-20 11:34 60.937304 -40.980475 262 33881ft 415kts
14-Sep-20 11:35 60.920954 -41.217943 261 33884ft 418kts
14-Sep-20 11:36 60.904192 -41.454926 261 33883ft 419kts
14-Sep-20 11:37 60.887033 -41.691731 260 33885ft 418kts
14-Sep-20 11:38 60.869460 -41.928958 260 33884ft 418kts
14-Sep-20 11:39 60.851479 -42.165450 260 33883ft 419kts
14-Sep-20 11:40 60.833033 -42.402055 261 33884ft 418kts
14-Sep-20 11:41 60.814275 -42.637243 261 33884ft 418kts
14-Sep-20 11:42 60.795113 -42.872430 260 33884ft 419kts
14-Sep-20 11:43 60.775564 -43.107607 259 33881ft 423kts
14-Sep-20 11:44 60.755017 -43.348166 258 33883ft 430kts
14-Sep-20 11:45 60.733972 -43.588959 258 33883ft 430kts
14-Sep-20 11:46 60.712525 -43.829930 258 33884ft 430kts
14-Sep-20 11:47 60.690654 -44.070273 258 33884ft 430kts
14-Sep-20 11:48 60.668367 -44.310010 258 33883ft 430kts
14-Sep-20 11:49 60.645584 -44.550082 258 33883ft 430kts
14-Sep-20 11:50 60.622440 -44.789385 257 33884ft 430kts
14-Sep-20 11:51 60.598869 -45.029032 256 33935ft 435kts
14-Sep-20 11:52 60.574448 -45.271528 255 35017ft 434kts
14-Sep-20 11:53 60.549743 -45.511751 255 35870ft 433kts
14-Sep-20 11:54 60.524659 -45.751535 254 35881ft 432kts
14-Sep-20 11:55 60.498974 -45.992914 255 35881ft 432kts
14-Sep-20 11:56 60.473038 -46.231959 254 35881ft 432kts
14-Sep-20 11:57 60.446803 -46.469309 255 35882ft 432kts
14-Sep-20 11:58 60.420157 -46.706221 254 35882ft 431kts
14-Sep-20 11:59 60.393219 -46.942526 253 35880ft 435kts
14-Sep-20 12:00 60.365121 -47.183821 253 35881ft 440kts
14-Sep-20 12:01 60.336589 -47.424609 253 35882ft 440kts
14-Sep-20 12:02 60.307605 -47.665166 252 35882ft 440kts
14-Sep-20 12:03 60.278276 -47.905156 252 35881ft 440kts
14-Sep-20 12:04 60.248538 -48.144111 252 35880ft 440kts
14-Sep-20 12:05 60.218436 -48.381954 252 35881ft 440kts
14-Sep-20 12:06 60.187641 -48.621497 252 35882ft 439kts
14-Sep-20 12:07 60.156715 -48.858668 251 35881ft 439kts
14-Sep-20 12:08 60.125469 -49.094374 251 35879ft 444kts
14-Sep-20 12:09 60.092732 -49.337063 251 35881ft 450kts
14-Sep-20 12:10 60.059510 -49.579494 251 35880ft 450kts
14-Sep-20 12:11 60.025875 -49.820943 250 35864ft 450kts
14-Sep-20 12:12 59.991563 -50.061105 249 35759ft 450kts
14-Sep-20 12:13 59.954669 -50.299987 249 35725ft 450kts
14-Sep-20 12:14 59.917192 -50.538149 249 35718ft 450kts
14-Sep-20 12:15 59.879102 -50.775541 248 35717ft 450kts
14-Sep-20 12:16 59.840667 -51.011778 248 35715ft 453kts
14-Sep-20 12:17 59.801468 -51.250771 248 35717ft 458kts
14-Sep-20 12:18 59.761408 -51.492095 248 35716ft 458kts
14-Sep-20 12:19 59.721272 -51.730783 247 35716ft 457kts
14-Sep-20 12:20 59.680558 -51.970102 247 35716ft 457kts
14-Sep-20 12:21 59.639581 -52.207381 247 35716ft 457kts
14-Sep-20 12:22 59.598011 -52.444986 247 35717ft 457kts
14-Sep-20 12:23 59.556078 -52.681692 246 35717ft 457kts
14-Sep-20 12:24 59.513827 -52.917807 246 35715ft 459kts
14-Sep-20 12:25 59.470513 -53.156198 246 35716ft 462kts
14-Sep-20 12:26 59.426791 -53.393770 246 35717ft 462kts
14-Sep-20 12:27 59.382507 -53.631465 246 35717ft 462kts
14-Sep-20 12:28 59.337958 -53.868152 245 35717ft 462kts
14-Sep-20 12:29 59.292813 -54.104784 245 35716ft 462kts
14-Sep-20 12:30 59.247291 -54.340353 245 35717ft 462kts
14-Sep-20 12:31 59.201195 -54.576029 245 35717ft 462kts
14-Sep-20 12:32 59.154852 -54.810607 244 35647ft 461kts
14-Sep-20 12:33 59.107823 -55.045632 244 35328ft 463kts
14-Sep-20 12:34 59.060135 -55.280992 244 35219ft 469kts
14-Sep-20 12:35 59.011708 -55.517215 244 35206ft 469kts
14-Sep-20 12:36 58.915013 -55.981315 244 35205ft 467kts
14-Sep-20 12:38 58.815169 -56.446512 244 35204ft 466kts
14-Sep-20 12:39 58.714557 -56.908207 243 35203ft 466kts
14-Sep-20 12:40 58.610756 -57.373269 243 35203ft 476kts
14-Sep-20 12:41 58.504764 -57.837899 242 35206ft 475kts
14-Sep-20 12:42 58.394210 -58.296860 241 35204ft 474kts
14-Sep-20 12:43 58.279094 -58.752097 240 35204ft 475kts
14-Sep-20 12:44 58.163084 -59.203052 240 35213ft 475kts
14-Sep-20 12:45 58.045530 -59.650396 239 35295ft 475kts
14-Sep-20 12:46 57.926281 -60.095931 239 35315ft 473kts
14-Sep-20 12:47 57.805414 -60.535823 239 35315ft 473kts
14-Sep-20 12:48 57.683540 -60.973875 238 35316ft 473kts
14-Sep-20 12:49 57.581668 -61.333025 239 35316ft 469kts
14-Sep-20 12:50 57.520109 -61.547519 239 35316ft 468kts
14-Sep-20 12:51 57.458416 -61.760656 238 35321ft 468kts
14-Sep-20 12:52 57.396408 -61.972908 238 35325ft 467kts
14-Sep-20 12:53 57.333612 -62.185558 238 35332ft 468kts
14-Sep-20 12:54 57.270650 -62.396677 238 35334ft 467kts
14-Sep-20 12:55 57.207058 -62.607672 238 35333ft 467kts
14-Sep-20 12:55 57.152686 -62.779665 236 35334ft 466kts
14-Sep-20 12:57 57.074654 -63.020070 236 35334ft 466kts
14-Sep-20 12:58 57.007654 -63.224524 237 35333ft 469kts
14-Sep-20 12:59 56.939430 -63.431025 237 35334ft 471kts
14-Sep-20 12:59 56.882579 -63.601625 237 35335ft 471kts
14-Sep-20 13:00 56.813522 -63.806486 236 35334ft 470kts
14-Sep-20 13:02 56.732909 -64.044477 236 35333ft 471kts
14-Sep-20 13:02 56.674813 -64.214554 236 35333ft 470kts
14-Sep-20 13:03 56.604931 -64.417518 236 35333ft 470kts
14-Sep-20 13:04 56.535118 -64.618631 236 35333ft 471kts
14-Sep-20 13:05 56.464792 -64.819970 235 35334ft 470kts
14-Sep-20 13:06 56.394078 -65.020481 236 35365ft 471kts
14-Sep-20 13:07 56.322898 -65.220493 236 35419ft 471kts
14-Sep-20 13:08 56.251790 -65.418647 236 35451ft 471kts
14-Sep-20 13:09 56.180109 -65.616767 236 35456ft 471kts
14-Sep-20 13:10 56.108455 -65.813657 235 35456ft 471kts
14-Sep-20 13:11 56.037214 -66.007597 235 35495ft 471kts
14-Sep-20 13:12 55.965333 -66.201559 235 35517ft 471kts
14-Sep-20 13:13 55.892536 -66.396366 235 35523ft 471kts
14-Sep-20 13:14 55.819158 -66.589873 235 35522ft 471kts
14-Sep-20 13:15 55.745777 -66.783330 234 35522ft 471kts
14-Sep-20 13:16 55.672189 -66.975900 234 35523ft 470kts
14-Sep-20 13:17 55.598616 -67.166649 234 35523ft 466kts
14-Sep-20 13:18 55.525212 -67.355596 234 35522ft 465kts
14-Sep-20 13:19 55.451196 -67.544644 234 35522ft 465kts
14-Sep-20 13:20 55.378446 -67.729257 234 35523ft 465kts
14-Sep-20 13:21 55.304170 -67.916452 234 35523ft 465kts
14-Sep-20 13:22 55.229598 -68.102674 234 35522ft 465kts
14-Sep-20 13:23 55.155019 -68.287460 234 35522ft 465kts
14-Sep-20 13:24 55.080075 -68.471781 234 35522ft 465kts
14-Sep-20 13:25 55.004756 -68.655587 233 35523ft 463kts
14-Sep-20 13:26 54.930090 -68.836830 234 35523ft 458kts
14-Sep-20 13:27 54.855027 -69.016648 235 35522ft 458kts
14-Sep-20 13:28 54.779692 -69.196118 235 35522ft 458kts
14-Sep-20 13:29 54.704521 -69.374338 235 35522ft 458kts
14-Sep-20 13:30 54.629074 -69.551941 235 35521ft 458kts
14-Sep-20 13:31 54.553656 -69.728422 235 35522ft 458kts
14-Sep-20 13:32 54.477565 -69.905360 235 35522ft 458kts
14-Sep-20 13:33 54.401305 -70.081134 235 35521ft 458kts
14-Sep-20 13:34 54.324669 -70.256519 235 35647ft 459kts
14-Sep-20 13:35 54.247992 -70.430718 235 35891ft 457kts
14-Sep-20 13:36 54.170768 -70.604980 235 35951ft 457kts
14-Sep-20 13:37 54.094059 -70.777215 234 35960ft 457kts
14-Sep-20 13:38 54.016939 -70.948901 235 35960ft 455kts
14-Sep-20 13:39 53.939759 -71.119509 235 35959ft 453kts
14-Sep-20 13:40 53.862334 -71.289004 235 35957ft 453kts
14-Sep-20 13:41 53.784523 -71.457944 235 35959ft 453kts
14-Sep-20 13:42 53.706922 -71.625885 235 35959ft 453kts
14-Sep-20 13:43 53.629016 -71.793858 234 35959ft 453kts
14-Sep-20 13:44 53.551019 -71.960681 234 35959ft 453kts
14-Sep-20 13:45 53.472273 -72.127841 234 35959ft 453kts
14-Sep-20 13:46 53.393502 -72.293937 234 35959ft 453kts
14-Sep-20 13:47 53.314386 -72.459655 234 35959ft 453kts
14-Sep-20 13:48 53.235388 -72.624037 234 35959ft 453kts
14-Sep-20 13:49 53.156189 -72.788143 233 35959ft 454kts
14-Sep-20 13:50 53.076671 -72.951552 234 35960ft 452kts
14-Sep-20 13:51 52.997240 -73.113437 235 35960ft 448kts
14-Sep-20 13:52 52.918319 -73.273525 236 35959ft 449kts
14-Sep-20 13:53 52.838621 -73.433421 236 35959ft 449kts
14-Sep-20 13:54 52.758653 -73.593117 236 35959ft 449kts
14-Sep-20 13:55 52.678675 -73.752460 235 35959ft 449kts
14-Sep-20 13:56 52.598707 -73.910752 235 35959ft 448kts
14-Sep-20 13:57 52.518325 -74.068655 235 35959ft 448kts
14-Sep-20 13:58 52.437670 -74.226097 235 35959ft 448kts
14-Sep-20 13:59 52.356554 -74.383447 235 35959ft 448kts
14-Sep-20 14:00 52.275387 -74.539915 235 35959ft 449kts
14-Sep-20 14:01 52.195086 -74.693852 235 35960ft 449kts
14-Sep-20 14:02 52.113934 -74.848716 235 35959ft 449kts
14-Sep-20 14:03 52.031841 -75.004045 235 35959ft 450kts
14-Sep-20 14:04 51.949549 -75.158789 235 35975ft 451kts
14-Sep-20 14:05 51.867897 -75.311051 235 36078ft 451kts
14-Sep-20 14:06 51.785317 -75.463766 235 36148ft 451kts
14-Sep-20 14:07 51.703232 -75.615224 235 36168ft 451kts
14-Sep-20 14:08 51.620463 -75.767206 235 36172ft 451kts
14-Sep-20 14:09 51.546281 -75.904902 238 36171ft 448kts
14-Sep-20 14:10 51.541220 -75.915510 239 36171ft 447kts
14-Sep-20 14:11 51.483048 -76.070565 252 36172ft 436kts
14-Sep-20 14:12 51.442714 -76.251032 259 36205ft 428kts
14-Sep-20 14:13 51.406167 -76.433444 259 36265ft 428kts
14-Sep-20 14:14 51.369329 -76.615465 259 36279ft 427kts
14-Sep-20 14:15 51.332268 -76.797100 258 36282ft 428kts
14-Sep-20 14:16 51.294966 -76.977229 260 36279ft 421kts
14-Sep-20 14:17 51.258206 -77.154240 261 36276ft 418kts
14-Sep-20 14:18 51.221148 -77.331277 261 36287ft 417kts
14-Sep-20 14:19 51.183751 -77.507976 261 36290ft 418kts
14-Sep-20 14:20 51.145969 -77.684955 261 36294ft 419kts
14-Sep-20 14:21 51.107962 -77.861573 261 36289ft 418kts
14-Sep-20 14:22 51.069746 -78.037434 261 36290ft 420kts
14-Sep-20 14:23 51.031193 -78.213339 261 36290ft 419kts
14-Sep-20 14:24 50.992476 -78.388272 262 36292ft 418kts
14-Sep-20 14:25 50.953484 -78.563183 263 36291ft 416kts
14-Sep-20 14:26 50.914436 -78.737059 262 36290ft 414kts
14-Sep-20 14:27 50.875396 -78.907865 263 36289ft 410kts
14-Sep-20 14:28 50.837130 -79.073558 263 36288ft 373kts
14-Sep-20 14:29 50.804041 -79.216374 264 36291ft 329kts
14-Sep-20 14:30 50.772567 -79.353255 264 36291ft 330kts
14-Sep-20 14:31 50.741923 -79.484921 264 36291ft 330kts
14-Sep-20 14:32 50.709949 -79.621488 264 36292ft 336kts
14-Sep-20 14:33 50.661020 -79.829622 262 36293ft 359kts
14-Sep-20 14:34 50.589329 -80.129615 262 36292ft 382kts
14-Sep-20 14:35 50.510989 -80.452632 261 36437ft 404kts
14-Sep-20 14:36 50.428401 -80.787340 261 37827ft 409kts
14-Sep-20 14:37 50.345354 -81.120233 259 38287ft 407kts
14-Sep-20 14:38 50.261421 -81.450582 259 38290ft 406kts
14-Sep-20 14:40 50.176687 -81.779870 258 38329ft 407kts
14-Sep-20 14:41 50.091029 -82.107918 259 38342ft 408kts
14-Sep-20 14:42 50.004229 -82.435491 259 38344ft 408kts
14-Sep-20 14:43 49.917791 -82.757196 258 38345ft 405kts
14-Sep-20 14:44 49.829257 -83.080939 256 38345ft 409kts
14-Sep-20 14:45 49.739305 -83.405579 256 38345ft 409kts
14-Sep-20 14:46 49.648378 -83.730249 255 38346ft 410kts
14-Sep-20 14:47 49.556205 -84.055138 255 38345ft 411kts
14-Sep-20 14:48 49.463077 -84.378630 255 38379ft 411kts
14-Sep-20 14:49 49.369400 -84.699806 255 38399ft 412kts
14-Sep-20 14:50 49.274707 -85.020580 254 38399ft 412kts
14-Sep-20 14:51 49.178621 -85.341630 253 38389ft 413kts
14-Sep-20 14:52 49.081509 -85.661285 252 38384ft 415kts
14-Sep-20 14:53 48.983002 -85.982231 251 38382ft 420kts
14-Sep-20 14:54 48.882442 -86.304500 251 38381ft 422kts
14-Sep-20 14:55 48.780255 -86.626500 251 38383ft 422kts
14-Sep-20 14:56 48.677607 -86.948153 251 38383ft 423kts
14-Sep-20 14:57 48.573876 -87.268517 251 38380ft 424kts
14-Sep-20 14:57 48.486917 -87.534133 250 38382ft 420kts
14-Sep-20 14:58 48.382920 -87.848378 249 38375ft 421kts
14-Sep-20 14:59 48.277215 -88.163651 249 38360ft 420kts
14-Sep-20 15:01 48.152961 -88.529255 250 38354ft 421kts
14-Sep-20 15:01 48.063165 -88.790612 249 38348ft 423kts
14-Sep-20 15:02 47.954571 -89.102755 250 38345ft 431kts
14-Sep-20 15:03 47.842948 -89.418788 250 38346ft 431kts
14-Sep-20 15:04 47.730101 -89.735136 250 38342ft 431kts
14-Sep-20 15:05 47.616033 -90.051802 250 38329ft 432kts
14-Sep-20 15:06 47.501403 -90.365898 250 38327ft 433kts
14-Sep-20 15:07 47.385979 -90.678451 249 38330ft 433kts
14-Sep-20 15:08 47.269039 -90.991834 249 38323ft 434kts
14-Sep-20 15:09 47.151559 -91.302644 248 38318ft 435kts
14-Sep-20 15:10 47.032356 -91.614067 248 38312ft 435kts
14-Sep-20 15:11 46.911950 -91.925560 246 38282ft 440kts
14-Sep-20 15:12 46.796022 -92.240089 253 38264ft 435kts
14-Sep-20 15:13 46.729573 -92.579284 258 38239ft 432kts
14-Sep-20 15:14 46.663052 -92.916289 257 38220ft 433kts
14-Sep-20 15:15 46.595461 -93.251977 257 38198ft 438kts
14-Sep-20 15:16 46.525604 -93.592841 257 38184ft 438kts
14-Sep-20 15:17 46.455414 -93.930179 257 38167ft 439kts
14-Sep-20 15:18 46.383451 -94.269833 257 38163ft 439kts
14-Sep-20 15:19 46.310314 -94.609329 257 38155ft 439kts
14-Sep-20 15:20 46.236554 -94.946703 256 38142ft 442kts
14-Sep-20 15:21 46.160454 -95.288767 256 38135ft 446kts
14-Sep-20 15:22 46.044283 -95.800665 256 38149ft 447kts
14-Sep-20 15:23 45.886617 -96.476421 255 38114ft 447kts
14-Sep-20 15:24 45.723499 -97.152992 254 38091ft 448kts
14-Sep-20 15:25 45.555308 -97.830713 253 38065ft 449kts
14-Sep-20 15:26 45.381511 -98.503685 252 38064ft 450kts
14-Sep-20 15:27 45.190555 -99.163660 250 38068ft 450kts
14-Sep-20 15:28 44.995014 -99.824436 248 38049ft 456kts
14-Sep-20 15:29 44.792349 -100.488715 248 38032ft 461kts
14-Sep-20 15:30 44.586004 -101.151805 247 38034ft 459kts
14-Sep-20 15:31 44.489513 -101.455279 247 38040ft 459kts
14-Sep-20 15:32 44.436833 -101.619622 247 38041ft 459kts
14-Sep-20 15:33 44.384081 -101.783577 246 38041ft 459kts
14-Sep-20 15:34 44.331066 -101.947081 246 38041ft 459kts
14-Sep-20 15:35 44.277689 -102.110521 246 38041ft 459kts
14-Sep-20 15:36 44.224078 -102.273632 246 38041ft 459kts
14-Sep-20 15:37 44.170256 -102.436350 246 38055ft 459kts
14-Sep-20 15:38 44.116570 -102.597602 246 38074ft 459kts
14-Sep-20 15:40 44.053361 -102.786355 245 38078ft 459kts
14-Sep-20 15:40 44.007728 -102.921191 245 38078ft 459kts
14-Sep-20 15:41 43.958685 -103.085493 251 38078ft 459kts
14-Sep-20 15:42 43.916041 -103.253879 251 38081ft 460kts
14-Sep-20 15:43 43.873573 -103.418180 250 38153ft 460kts
14-Sep-20 15:44 43.830060 -103.585544 251 38242ft 459kts
14-Sep-20 15:45 43.786846 -103.751794 250 38258ft 459kts
14-Sep-20 15:46 43.743138 -103.918819 250 38260ft 459kts
14-Sep-20 15:47 43.699039 -104.085916 250 38234ft 459kts
14-Sep-20 15:48 43.655177 -104.250940 250 38178ft 460kts
14-Sep-20 15:49 43.610706 -104.417119 250 38163ft 460kts
14-Sep-20 15:50 43.565980 -104.583112 250 38162ft 460kts
14-Sep-20 15:51 43.521021 -104.749127 249 38162ft 460kts
14-Sep-20 15:52 43.475899 -104.914576 249 38165ft 460kts
14-Sep-20 15:53 43.430432 -105.079917 249 38187ft 459kts
14-Sep-20 15:54 43.384672 -105.245124 249 38203ft 459kts
14-Sep-20 15:55 43.338889 -105.409311 249 38206ft 459kts
14-Sep-20 15:56 43.292729 -105.573735 249 38206ft 459kts
14-Sep-20 15:57 43.246969 -105.735857 248 38206ft 459kts
14-Sep-20 15:58 43.200320 -105.899871 248 38207ft 459kts
14-Sep-20 15:59 43.153763 -106.061792 248 38219ft 459kts
14-Sep-20 16:00 43.104342 -106.224591 243 38232ft 459kts
14-Sep-20 16:01 43.035915 -106.372332 232 38234ft 460kts
14-Sep-20 16:02 42.954406 -106.510111 231 38233ft 464kts
14-Sep-20 16:03 42.875770 -106.642056 231 38232ft 468kts
14-Sep-20 16:04 42.793737 -106.779065 230 38234ft 469kts
14-Sep-20 16:05 42.711128 -106.916720 230 38234ft 467kts
14-Sep-20 16:06 42.628301 -107.054072 230 38234ft 464kts
14-Sep-20 16:07 42.546074 -107.189814 230 38265ft 464kts
14-Sep-20 16:08 42.463564 -107.325397 230 38348ft 464kts
14-Sep-20 16:09 42.380932 -107.460541 230 38377ft 464kts
14-Sep-20 16:10 42.297979 -107.595599 230 38381ft 464kts
14-Sep-20 16:11 42.214689 -107.730903 230 38381ft 464kts
14-Sep-20 16:12 42.131772 -107.864917 230 38380ft 464kts
14-Sep-20 16:13 42.048459 -107.998739 229 38368ft 464kts
14-Sep-20 16:14 41.965024 -108.132121 229 38350ft 464kts
14-Sep-20 16:15 41.882939 -108.262647 229 38351ft 464kts
14-Sep-20 16:16 41.799064 -108.394840 229 38361ft 464kts
14-Sep-20 16:17 41.715130 -108.527121 230 38361ft 464kts
14-Sep-20 16:18 41.631723 -108.657950 229 38362ft 464kts
14-Sep-20 16:19 41.547099 -108.790121 228 38360ft 464kts
14-Sep-20 16:20 41.458691 -108.917013 226 38361ft 464kts
14-Sep-20 16:21 41.369985 -109.042725 226 38361ft 463kts
14-Sep-20 16:22 41.281233 -109.167818 226 38361ft 462kts
14-Sep-20 16:23 41.192361 -109.292526 226 38361ft 462kts
14-Sep-20 16:24 41.103807 -109.416271 226 38362ft 462kts
14-Sep-20 16:25 41.014746 -109.540170 227 38336ft 462kts
14-Sep-20 16:26 40.926582 -109.662370 226 38301ft 462kts
14-Sep-20 16:27 40.837655 -109.785081 226 38290ft 462kts
14-Sep-20 16:28 40.748118 -109.907925 226 38290ft 462kts
14-Sep-20 16:29 40.658701 -110.030268 226 38290ft 462kts
14-Sep-20 16:30 40.569075 -110.152419 226 38290ft 462kts
14-Sep-20 16:31 40.479338 -110.274227 226 38293ft 462kts
14-Sep-20 16:32 40.389297 -110.395952 226 38296ft 462kts
14-Sep-20 16:33 40.299341 -110.517064 226 38316ft 462kts
14-Sep-20 16:35 40.209411 -110.637649 226 38324ft 462kts
14-Sep-20 16:36 40.119241 -110.758505 226 38325ft 462kts
14-Sep-20 16:37 40.028722 -110.879042 225 38325ft 462kts
14-Sep-20 16:38 39.938543 -110.998527 225 38325ft 461kts
14-Sep-20 16:39 39.849232 -111.115989 225 38325ft 460kts
14-Sep-20 16:40 39.758977 -111.234224 225 38314ft 459kts
14-Sep-20 16:41 39.668402 -111.352738 225 38313ft 460kts
14-Sep-20 16:42 39.578349 -111.470154 225 38309ft 459kts
14-Sep-20 16:43 39.487866 -111.587678 225 38271ft 460kts
14-Sep-20 16:44 39.397492 -111.704834 225 38238ft 460kts
14-Sep-20 16:45 39.306923 -111.821864 225 38224ft 460kts
14-Sep-20 16:46 39.216010 -111.938600 225 38217ft 460kts
14-Sep-20 16:47 39.125082 -112.054873 225 38216ft 460kts
14-Sep-20 16:48 39.034942 -112.169692 225 38216ft 460kts
14-Sep-20 16:49 38.943700 -112.285412 225 38216ft 459kts
14-Sep-20 16:50 38.853354 -112.399254 225 38216ft 459kts
14-Sep-20 16:50 38.776928 -112.495207 225 38216ft 459kts
14-Sep-20 16:51 38.685521 -112.609876 225 38216ft 459kts
14-Sep-20 16:53 38.580614 -112.741325 225 38216ft 459kts
14-Sep-20 16:54 38.489054 -112.855167 225 38217ft 459kts
14-Sep-20 16:54 38.412343 -112.950079 225 38216ft 458kts
14-Sep-20 16:55 38.312612 -113.051304 214 38217ft 460kts
14-Sep-20 16:56 38.203025 -113.135759 213 38217ft 460kts
14-Sep-20 16:57 38.092726 -113.220130 213 38227ft 460kts
14-Sep-20 16:58 37.982717 -113.303973 213 38252ft 460kts
14-Sep-20 16:59 37.874916 -113.385772 213 38260ft 460kts
14-Sep-20 17:00 37.765588 -113.468098 213 38256ft 438kts
14-Sep-20 17:01 37.659113 -113.548372 213 38261ft 455kts
14-Sep-20 17:02 37.546507 -113.628026 204 38222ft 471kts
14-Sep-20 17:03 37.432155 -113.682597 203 37383ft 462kts
14-Sep-20 17:04 37.313398 -113.739102 203 35584ft 444kts
14-Sep-20 17:05 37.198998 -113.793421 203 33202ft 445kts
14-Sep-20 17:06 37.082043 -113.848826 202 30185ft 454kts
14-Sep-20 17:07 36.963257 -113.904829 202 27125ft 456kts
14-Sep-20 17:08 36.844901 -113.960346 202 24100ft 454kts
14-Sep-20 17:09 36.727202 -114.015204 201 21048ft 449kts
14-Sep-20 17:10 36.632644 -114.104686 233 18113ft 427kts
14-Sep-20 17:11 36.562151 -114.218773 231 15052ft 397kts
14-Sep-20 17:12 36.496738 -114.321003 231 12168ft 358kts
14-Sep-20 17:13 36.440923 -114.407662 231 11988ft 303kts
14-Sep-20 17:14 36.372578 -114.467848 212 11967ft 302kts
14-Sep-20 17:15 36.300699 -114.522515 212 11965ft 302kts
14-Sep-20 17:16 36.229771 -114.576416 212 11660ft 290kts
14-Sep-20 17:17 36.158572 -114.631089 212 9136ft 308kts
14-Sep-20 17:18 36.088443 -114.686707 212 7967ft 270kts
14-Sep-20 17:19 36.057742 -114.750381 305 7969ft 249kts
14-Sep-20 17:20 36.087457 -114.822409 248 6076ft 279kts
14-Sep-20 17:21 36.074680 -114.916639 266 4635ft 264kts
14-Sep-20 17:22 36.074319 -115.002058 267 4010ft 229kts
14-Sep-20 17:23 36.073273 -115.072133 273 3049ft 190kts
14-Sep-20 17:24 36.073692 -115.133283 271 2125ft 138kts
14-Sep-20 17:25 36.075041 -115.151912 276 2124ft 32kts
14-Sep-20 17:26 36.076032 -115.161371 351 2124ft 14kts
14-Sep-20 17:27 36.077312 -115.161338 3 2124ft 0kts
14-Sep-20 17:28 36.078016 -115.159730 89 2124ft 12kts
14-Sep-20 17:29 36.078088 -115.152591 87 2124ft 24kts
14-Sep-20 17:30 36.077901 -115.144659 48 2124ft 16kts
14-Sep-20 17:31 36.080576 -115.142412 357 2124ft 13kts
14-Sep-20 17:32 36.083815 -115.141298 44 2124ft 12kts
14-Sep-20 17:33 36.085106 -115.138472 4 2124ft 5kts
14-Sep-20 17:34 36.085188 -115.138465 3 2124ft 0kts
14-Sep-20 17:35 36.085188 -115.138465 3 2124ft 0kts
14-Sep-20 17:36 36.085188 -115.138465 3 2124ft 0kts
14-Sep-20 17:37 36.085188 -115.138465 3 2124ft 0kts
14-Sep-20 17:38 36.085188 -115.138465 3 2124ft 0kts
14-Sep-20 17:39 36.085188 -115.138465 3 2124ft 0kts

Navigation Log

Ident Type
Flight plan parsing failed, navigation log unavailable